sensor_id;sensor_type;location;lat;lon;timestamp;pressure;altitude;pressure_sealevel;temperature;humidity
70304;BME280;57712;48.752;11.348;2023-04-01T00:01:12;96202.16;;;8.35;100.00
70304;BME280;57712;48.752;11.348;2023-04-01T00:03:40;96204.50;;;8.33;100.00
70304;BME280;57712;48.752;11.348;2023-04-01T00:06:09;96200.25;;;8.32;100.00
70304;BME280;57712;48.752;11.348;2023-04-01T00:08:39;96205.38;;;8.30;100.00
70304;BME280;57712;48.752;11.348;2023-04-01T00:11:06;96197.88;;;8.34;100.00
70304;BME280;57712;48.752;11.348;2023-04-01T00:13:33;96207.13;;;8.24;100.00
70304;BME280;57712;48.752;11.348;2023-04-01T00:16:00;96204.31;;;8.27;100.00
70304;BME280;57712;48.752;11.348;2023-04-01T00:18:29;96197.97;;;8.18;100.00
70304;BME280;57712;48.752;11.348;2023-04-01T00:20:56;96199.03;;;8.20;100.00
70304;BME280;57712;48.752;11.348;2023-04-01T00:23:23;96203.72;;;8.20;100.00
70304;BME280;57712;48.752;11.348;2023-04-01T00:25:50;96202.22;;;8.19;100.00
70304;BME280;57712;48.752;11.348;2023-04-01T00:28:18;96195.22;;;8.18;100.00
70304;BME280;57712;48.752;11.348;2023-04-01T00:30:45;96194.03;;;8.19;100.00
70304;BME280;57712;48.752;11.348;2023-04-01T00:33:12;96195.56;;;8.20;100.00
70304;BME280;57712;48.752;11.348;2023-04-01T00:35:39;96212.25;;;8.22;100.00
70304;BME280;57712;48.752;11.348;2023-04-01T00:38:05;96202.75;;;8.14;100.00
70304;BME280;57712;48.752;11.348;2023-04-01T00:40:42;96207.47;;;8.13;100.00
70304;BME280;57712;48.752;11.348;2023-04-01T00:43:17;96190.41;;;8.09;100.00
70304;BME280;57712;48.752;11.348;2023-04-01T00:45:47;96207.22;;;8.07;100.00
70304;BME280;57712;48.752;11.348;2023-04-01T00:48:18;96207.75;;;8.02;100.00
70304;BME280;57712;48.752;11.348;2023-04-01T00:50:52;96202.63;;;8.04;100.00
70304;BME280;57712;48.752;11.348;2023-04-01T00:53:21;96199.91;;;8.04;100.00
70304;BME280;57712;48.752;11.348;2023-04-01T00:56:11;96199.59;;;8.02;100.00
70304;BME280;57712;48.752;11.348;2023-04-01T00:58:42;96177.19;;;7.95;100.00
70304;BME280;57712;48.752;11.348;2023-04-01T01:01:10;96172.06;;;7.97;100.00
70304;BME280;57712;48.752;11.348;2023-04-01T01:03:37;96176.88;;;7.93;100.00
70304;BME280;57712;48.752;11.348;2023-04-01T01:06:11;96178.28;;;7.97;100.00
70304;BME280;57712;48.752;11.348;2023-04-01T01:09:28;96182.41;;;7.89;100.00
70304;BME280;57712;48.752;11.348;2023-04-01T01:12:11;96188.09;;;7.82;100.00
70304;BME280;57712;48.752;11.348;2023-04-01T01:15:07;96190.47;;;7.80;100.00
70304;BME280;57712;48.752;11.348;2023-04-01T01:20:24;96179.91;;;7.82;100.00
70304;BME280;57712;48.752;11.348;2023-04-01T01:35:06;96172.78;;;7.72;100.00
70304;BME280;57712;48.752;11.348;2023-04-01T01:37:37;96166.59;;;7.71;100.00
70304;BME280;57712;48.752;11.348;2023-04-01T01:40:07;96181.50;;;7.67;100.00
70304;BME280;57712;48.752;11.348;2023-04-01T01:42:38;96174.50;;;7.66;100.00
70304;BME280;57712;48.752;11.348;2023-04-01T01:45:08;96169.81;;;7.66;100.00
70304;BME280;57712;48.752;11.348;2023-04-01T01:47:37;96160.88;;;7.66;100.00
70304;BME280;57712;48.752;11.348;2023-04-01T01:50:05;96161.41;;;7.61;100.00
70304;BME280;57712;48.752;11.348;2023-04-01T01:52:32;96158.34;;;7.59;100.00
70304;BME280;57712;48.752;11.348;2023-04-01T01:54:58;96176.22;;;7.60;100.00
70304;BME280;57712;48.752;11.348;2023-04-01T01:57:28;96166.53;;;7.59;100.00
70304;BME280;57712;48.752;11.348;2023-04-01T02:00:04;96161.50;;;7.57;100.00
70304;BME280;57712;48.752;11.348;2023-04-01T02:02:44;96165.31;;;7.60;100.00
70304;BME280;57712;48.752;11.348;2023-04-01T02:05:16;96158.34;;;7.59;100.00
70304;BME280;57712;48.752;11.348;2023-04-01T02:07:50;96164.56;;;7.59;100.00
70304;BME280;57712;48.752;11.348;2023-04-01T02:10:21;96175.56;;;7.56;100.00
70304;BME280;57712;48.752;11.348;2023-04-01T02:12:49;96158.28;;;7.62;100.00
70304;BME280;57712;48.752;11.348;2023-04-01T02:15:19;96167.41;;;7.56;100.00
70304;BME280;57712;48.752;11.348;2023-04-01T02:17:47;96163.63;;;7.66;100.00
70304;BME280;57712;48.752;11.348;2023-04-01T02:20:18;96171.13;;;7.62;100.00
70304;BME280;57712;48.752;11.348;2023-04-01T02:22:51;96161.06;;;7.59;100.00
70304;BME280;57712;48.752;11.348;2023-04-01T02:25:24;96173.19;;;7.58;100.00
70304;BME280;57712;48.752;11.348;2023-04-01T02:27:53;96171.22;;;7.58;100.00
70304;BME280;57712;48.752;11.348;2023-04-01T02:30:20;96183.41;;;7.53;100.00
70304;BME280;57712;48.752;11.348;2023-04-01T02:32:48;96172.84;;;7.56;100.00
70304;BME280;57712;48.752;11.348;2023-04-01T02:35:17;96174.81;;;7.55;100.00
70304;BME280;57712;48.752;11.348;2023-04-01T02:37:45;96176.78;;;7.55;100.00
70304;BME280;57712;48.752;11.348;2023-04-01T02:40:15;96176.13;;;7.50;100.00
70304;BME280;57712;48.752;11.348;2023-04-01T02:42:42;96174.22;;;7.47;100.00
70304;BME280;57712;48.752;11.348;2023-04-01T02:45:10;96187.34;;;7.52;100.00
70304;BME280;57712;48.752;11.348;2023-04-01T02:47:37;96188.94;;;7.50;100.00
70304;BME280;57712;48.752;11.348;2023-04-01T02:50:04;96198.25;;;7.52;100.00
70304;BME280;57712;48.752;11.348;2023-04-01T02:52:32;96192.09;;;7.48;100.00
70304;BME280;57712;48.752;11.348;2023-04-01T02:54:58;96203.00;;;7.48;100.00
70304;BME280;57712;48.752;11.348;2023-04-01T02:57:25;96194.41;;;7.50;100.00
70304;BME280;57712;48.752;11.348;2023-04-01T02:59:52;96206.41;;;7.52;100.00
70304;BME280;57712;48.752;11.348;2023-04-01T03:02:18;96202.81;;;7.56;100.00
70304;BME280;57712;48.752;11.348;2023-04-01T03:04:47;96204.25;;;7.60;100.00
70304;BME280;57712;48.752;11.348;2023-04-01T03:07:13;96207.41;;;7.59;100.00
70304;BME280;57712;48.752;11.348;2023-04-01T03:09:40;96205.09;;;7.57;100.00
70304;BME280;57712;48.752;11.348;2023-04-01T03:12:07;96207.59;;;7.51;100.00
70304;BME280;57712;48.752;11.348;2023-04-01T03:14:34;96210.75;;;7.50;100.00
70304;BME280;57712;48.752;11.348;2023-04-01T03:17:00;96206.09;;;7.50;100.00
70304;BME280;57712;48.752;11.348;2023-04-01T03:19:27;96213.38;;;7.53;100.00
70304;BME280;57712;48.752;11.348;2023-04-01T03:21:54;96202.94;;;7.52;100.00
70304;BME280;57712;48.752;11.348;2023-04-01T03:24:20;96211.00;;;7.56;100.00
70304;BME280;57712;48.752;11.348;2023-04-01T03:26:50;96206.75;;;7.55;100.00
70304;BME280;57712;48.752;11.348;2023-04-01T03:29:16;96208.44;;;7.48;100.00
70304;BME280;57712;48.752;11.348;2023-04-01T03:31:43;96216.28;;;7.46;100.00
70304;BME280;57712;48.752;11.348;2023-04-01T03:34:10;96215.44;;;7.49;100.00
70304;BME280;57712;48.752;11.348;2023-04-01T03:36:36;96216.53;;;7.52;100.00
70304;BME280;57712;48.752;11.348;2023-04-01T03:39:03;96218.50;;;7.51;100.00
70304;BME280;57712;48.752;11.348;2023-04-01T03:41:31;96209.78;;;7.57;100.00
70304;BME280;57712;48.752;11.348;2023-04-01T03:43:58;96222.56;;;7.60;100.00
70304;BME280;57712;48.752;11.348;2023-04-01T03:46:25;96224.44;;;7.63;100.00
70304;BME280;57712;48.752;11.348;2023-04-01T03:48:52;96229.88;;;7.63;100.00
70304;BME280;57712;48.752;11.348;2023-04-01T03:51:18;96234.03;;;7.67;100.00
70304;BME280;57712;48.752;11.348;2023-04-01T03:53:45;96238.56;;;7.58;100.00
70304;BME280;57712;48.752;11.348;2023-04-01T03:56:12;96239.59;;;7.64;100.00
70304;BME280;57712;48.752;11.348;2023-04-01T03:58:38;96240.19;;;7.55;100.00
70304;BME280;57712;48.752;11.348;2023-04-01T04:01:19;96242.50;;;7.57;100.00
70304;BME280;57712;48.752;11.348;2023-04-01T04:03:48;96241.06;;;7.52;100.00
70304;BME280;57712;48.752;11.348;2023-04-01T04:06:17;96233.66;;;7.52;100.00
70304;BME280;57712;48.752;11.348;2023-04-01T04:08:44;96241.06;;;7.52;100.00
70304;BME280;57712;48.752;11.348;2023-04-01T04:11:11;96231.00;;;7.49;100.00
70304;BME280;57712;48.752;11.348;2023-04-01T04:13:38;96229.69;;;7.41;100.00
70304;BME280;57712;48.752;11.348;2023-04-01T04:16:05;96231.22;;;7.42;100.00
70304;BME280;57712;48.752;11.348;2023-04-01T04:18:32;96229.44;;;7.35;100.00
70304;BME280;57712;48.752;11.348;2023-04-01T04:20:59;96238.13;;;7.30;100.00
70304;BME280;57712;48.752;11.348;2023-04-01T04:23:25;96240.50;;;7.28;100.00
70304;BME280;57712;48.752;11.348;2023-04-01T04:26:05;96240.94;;;7.27;100.00
70304;BME280;57712;48.752;11.348;2023-04-01T04:28:33;96243.22;;;7.28;100.00
70304;BME280;57712;48.752;11.348;2023-04-01T04:31:00;96242.03;;;7.29;100.00
70304;BME280;57712;48.752;11.348;2023-04-01T04:33:27;96240.09;;;7.30;100.00
70304;BME280;57712;48.752;11.348;2023-04-01T04:35:56;96237.09;;;7.24;100.00
70304;BME280;57712;48.752;11.348;2023-04-01T04:38:24;96246.03;;;7.24;100.00
70304;BME280;57712;48.752;11.348;2023-04-01T04:40:51;96244.25;;;7.18;100.00
70304;BME280;57712;48.752;11.348;2023-04-01T04:43:18;96256.88;;;7.12;100.00
70304;BME280;57712;48.752;11.348;2023-04-01T04:45:45;96254.81;;;7.16;100.00
70304;BME280;57712;48.752;11.348;2023-04-01T04:48:14;96244.50;;;7.07;100.00
70304;BME280;57712;48.752;11.348;2023-04-01T04:50:49;96250.72;;;7.08;100.00
70304;BME280;57712;48.752;11.348;2023-04-01T04:53:17;96253.03;;;7.09;100.00
70304;BME280;57712;48.752;11.348;2023-04-01T04:55:49;96245.28;;;7.08;100.00
70304;BME280;57712;48.752;11.348;2023-04-01T04:58:16;96259.25;;;7.10;100.00
70304;BME280;57712;48.752;11.348;2023-04-01T05:00:43;96247.84;;;7.15;100.00
70304;BME280;57712;48.752;11.348;2023-04-01T05:03:11;96241.97;;;7.16;100.00
70304;BME280;57712;48.752;11.348;2023-04-01T05:05:38;96246.63;;;7.16;100.00
70304;BME280;57712;48.752;11.348;2023-04-01T05:08:06;96250.41;;;7.22;100.00
70304;BME280;57712;48.752;11.348;2023-04-01T05:10:32;96250.91;;;7.17;100.00
70304;BME280;57712;48.752;11.348;2023-04-01T05:12:59;96251.16;;;7.22;100.00
70304;BME280;57712;48.752;11.348;2023-04-01T05:15:26;96249.78;;;7.14;100.00
70304;BME280;57712;48.752;11.348;2023-04-01T05:17:52;96247.34;;;7.20;100.00
70304;BME280;57712;48.752;11.348;2023-04-01T05:20:19;96254.22;;;7.24;100.00
70304;BME280;57712;48.752;11.348;2023-04-01T05:22:46;96257.38;;;7.23;100.00
70304;BME280;57712;48.752;11.348;2023-04-01T05:25:12;96257.38;;;7.23;100.00
70304;BME280;57712;48.752;11.348;2023-04-01T05:27:39;96262.72;;;7.27;100.00
70304;BME280;57712;48.752;11.348;2023-04-01T05:30:06;96252.25;;;7.25;100.00
70304;BME280;57712;48.752;11.348;2023-04-01T05:32:33;96254.97;;;7.25;100.00
70304;BME280;57712;48.752;11.348;2023-04-01T05:35:00;96254.81;;;7.32;100.00
70304;BME280;57712;48.752;11.348;2023-04-01T05:37:26;96265.34;;;7.46;100.00
70304;BME280;57712;48.752;11.348;2023-04-01T05:39:53;96256.66;;;7.35;100.00
70304;BME280;57712;48.752;11.348;2023-04-01T05:42:20;96264.13;;;7.47;100.00
70304;BME280;57712;48.752;11.348;2023-04-01T05:44:46;96257.75;;;7.38;100.00
70304;BME280;57712;48.752;11.348;2023-04-01T05:47:13;96252.25;;;7.41;100.00
70304;BME280;57712;48.752;11.348;2023-04-01T05:49:39;96248.50;;;7.35;100.00
70304;BME280;57712;48.752;11.348;2023-04-01T05:52:06;96258.88;;;7.40;100.00
70304;BME280;57712;48.752;11.348;2023-04-01T05:54:33;96266.53;;;7.45;100.00
70304;BME280;57712;48.752;11.348;2023-04-01T05:57:00;96261.13;;;7.58;100.00
70304;BME280;57712;48.752;11.348;2023-04-01T05:59:27;96262.66;;;7.59;100.00
70304;BME280;57712;48.752;11.348;2023-04-01T06:01:54;96269.28;;;7.74;100.00
70304;BME280;57712;48.752;11.348;2023-04-01T06:04:22;96276.53;;;7.65;100.00
70304;BME280;57712;48.752;11.348;2023-04-01T06:06:49;96267.97;;;7.79;100.00
70304;BME280;57712;48.752;11.348;2023-04-01T06:09:26;96273.44;;;7.79;100.00
70304;BME280;57712;48.752;11.348;2023-04-01T06:12:27;96275.09;;;7.89;100.00
70304;BME280;57712;48.752;11.348;2023-04-01T06:17:43;96269.47;;;7.96;100.00
70304;BME280;57712;48.752;11.348;2023-04-01T06:34:54;96273.91;;;8.32;100.00
70304;BME280;57712;48.752;11.348;2023-04-01T06:43:27;96279.69;;;8.76;100.00
70304;BME280;57712;48.752;11.348;2023-04-01T06:48:44;96281.06;;;8.42;100.00
70304;BME280;57712;48.752;11.348;2023-04-01T06:52:21;96268.63;;;8.54;100.00
70304;BME280;57712;48.752;11.348;2023-04-01T06:54:26;96267.22;;;8.49;100.00
70304;BME280;57712;48.752;11.348;2023-04-01T06:57:02;96271.47;;;8.50;100.00
70304;BME280;57712;48.752;11.348;2023-04-01T06:59:33;96276.38;;;8.43;100.00
70304;BME280;57712;48.752;11.348;2023-04-01T07:04:40;96264.16;;;8.60;100.00
70304;BME280;57712;48.752;11.348;2023-04-01T07:07:16;96262.00;;;8.55;100.00
70304;BME280;57712;48.752;11.348;2023-04-01T07:09:52;96260.34;;;8.70;100.00
70304;BME280;57712;48.752;11.348;2023-04-01T07:15:15;96259.78;;;9.01;100.00
70304;BME280;57712;48.752;11.348;2023-04-01T07:17:45;96257.81;;;9.01;100.00
70304;BME280;57712;48.752;11.348;2023-04-01T07:22:56;96258.19;;;9.38;100.00
70304;BME280;57712;48.752;11.348;2023-04-01T07:25:39;96254.94;;;9.65;100.00
70304;BME280;57712;48.752;11.348;2023-04-01T07:28:15;96260.16;;;9.50;100.00
70304;BME280;57712;48.752;11.348;2023-04-01T07:31:11;96258.28;;;9.81;100.00
70304;BME280;57712;48.752;11.348;2023-04-01T07:33:53;96268.53;;;9.55;100.00
70304;BME280;57712;48.752;11.348;2023-04-01T07:36:35;96272.88;;;9.66;100.00
70304;BME280;57712;48.752;11.348;2023-04-01T07:47:53;96271.72;;;10.54;100.00
70304;BME280;57712;48.752;11.348;2023-04-01T07:53:21;96249.75;;;9.79;100.00
70304;BME280;57712;48.752;11.348;2023-04-01T07:56:07;96258.53;;;10.18;100.00
70304;BME280;57712;48.752;11.348;2023-04-01T08:04:44;96259.00;;;10.38;100.00
70304;BME280;57712;48.752;11.348;2023-04-01T08:10:10;96256.00;;;10.02;100.00
70304;BME280;57712;48.752;11.348;2023-04-01T08:15:28;96258.81;;;10.11;100.00
70304;BME280;57712;48.752;11.348;2023-04-01T08:18:09;96263.00;;;10.03;100.00
70304;BME280;57712;48.752;11.348;2023-04-01T08:20:47;96254.28;;;10.17;100.00
70304;BME280;57712;48.752;11.348;2023-04-01T08:23:23;96238.69;;;10.05;100.00
70304;BME280;57712;48.752;11.348;2023-04-01T08:26:37;96250.59;;;10.11;100.00
70304;BME280;57712;48.752;11.348;2023-04-01T08:29:13;96257.16;;;10.13;100.00
70304;BME280;57712;48.752;11.348;2023-04-01T08:32:00;96252.16;;;9.77;100.00
70304;BME280;57712;48.752;11.348;2023-04-01T08:34:37;96255.09;;;10.05;100.00
70304;BME280;57712;48.752;11.348;2023-04-01T08:37:06;96255.94;;;9.93;100.00
70304;BME280;57712;48.752;11.348;2023-04-01T08:39:37;96240.16;;;9.97;100.00
70304;BME280;57712;48.752;11.348;2023-04-01T08:42:31;96235.13;;;10.17;100.00
70304;BME280;57712;48.752;11.348;2023-04-01T08:54:17;96243.25;;;10.08;100.00
70304;BME280;57712;48.752;11.348;2023-04-01T09:00:22;96243.00;;;10.15;100.00
70304;BME280;57712;48.752;11.348;2023-04-01T09:03:17;96246.66;;;10.12;100.00
70304;BME280;57712;48.752;11.348;2023-04-01T09:09:05;96252.81;;;10.47;100.00
70304;BME280;57712;48.752;11.348;2023-04-01T09:11:44;96246.19;;;10.35;100.00
70304;BME280;57712;48.752;11.348;2023-04-01T09:22:48;96250.59;;;10.11;100.00
70304;BME280;57712;48.752;11.348;2023-04-01T09:25:31;96253.47;;;10.29;100.00
70304;BME280;57712;48.752;11.348;2023-04-01T09:42:40;96237.84;;;10.39;100.00
70304;BME280;57712;48.752;11.348;2023-04-01T09:45:27;96241.63;;;10.32;100.00
70304;BME280;57712;48.752;11.348;2023-04-01T09:50:56;96233.28;;;10.36;100.00
70304;BME280;57712;48.752;11.348;2023-04-01T09:53:40;96249.09;;;10.41;100.00
70304;BME280;57712;48.752;11.348;2023-04-01T10:04:23;96239.47;;;10.27;100.00
70304;BME280;57712;48.752;11.348;2023-04-01T10:10:03;96235.06;;;10.08;100.00
70304;BME280;57712;48.752;11.348;2023-04-01T10:20:54;96235.50;;;10.28;100.00
70304;BME280;57712;48.752;11.348;2023-04-01T10:23:35;96235.19;;;10.26;100.00
70304;BME280;57712;48.752;11.348;2023-04-01T10:32:21;96245.03;;;10.46;100.00
70304;BME280;57712;48.752;11.348;2023-04-01T10:35:23;96255.28;;;10.10;100.00
70304;BME280;57712;48.752;11.348;2023-04-01T10:38:26;96243.41;;;10.04;100.00
70304;BME280;57712;48.752;11.348;2023-04-01T10:44:08;96246.53;;;9.94;100.00
70304;BME280;57712;48.752;11.348;2023-04-01T10:47:03;96249.34;;;9.68;100.00
70304;BME280;57712;48.752;11.348;2023-04-01T10:52:40;96250.75;;;9.51;100.00
70304;BME280;57712;48.752;11.348;2023-04-01T11:04:01;96270.91;;;9.06;100.00
70304;BME280;57712;48.752;11.348;2023-04-01T11:28:39;96272.69;;;8.87;100.00
70304;BME280;57712;48.752;11.348;2023-04-01T11:31:23;96281.88;;;8.81;100.00
70304;BME280;57712;48.752;11.348;2023-04-01T11:34:13;96284.28;;;8.79;100.00
70304;BME280;57712;48.752;11.348;2023-04-01T11:39:44;96284.91;;;8.57;100.00
70304;BME280;57712;48.752;11.348;2023-04-01T11:42:41;96285.69;;;8.58;100.00
70304;BME280;57712;48.752;11.348;2023-04-01T11:45:32;96279.97;;;8.52;100.00
70304;BME280;57712;48.752;11.348;2023-04-01T12:01:23;96291.44;;;8.47;100.00
70304;BME280;57712;48.752;11.348;2023-04-01T12:06:30;96295.91;;;8.41;100.00
70304;BME280;57712;48.752;11.348;2023-04-01T12:09:12;96290.69;;;8.47;100.00
70304;BME280;57712;48.752;11.348;2023-04-01T12:12:03;96290.34;;;8.45;100.00
70304;BME280;57712;48.752;11.348;2023-04-01T12:15:00;96294.38;;;8.53;100.00
70304;BME280;57712;48.752;11.348;2023-04-01T12:23:03;96296.47;;;8.61;100.00
70304;BME280;57712;48.752;11.348;2023-04-01T12:25:51;96296.16;;;8.72;100.00
70304;BME280;57712;48.752;11.348;2023-04-01T12:31:02;96285.81;;;8.67;100.00
70304;BME280;57712;48.752;11.348;2023-04-01T12:42:10;96296.41;;;8.78;100.00
70304;BME280;57712;48.752;11.348;2023-04-01T13:06:53;96282.28;;;9.30;100.00
70304;BME280;57712;48.752;11.348;2023-04-01T13:10:15;96289.72;;;9.30;100.00
70304;BME280;57712;48.752;11.348;2023-04-01T13:15:52;96298.97;;;9.32;100.00
70304;BME280;57712;48.752;11.348;2023-04-01T13:21:39;96293.53;;;9.19;100.00
70304;BME280;57712;48.752;11.348;2023-04-01T13:27:06;96282.03;;;9.24;100.00
70304;BME280;57712;48.752;11.348;2023-04-01T13:32:29;96295.09;;;9.55;100.00
70304;BME280;57712;48.752;11.348;2023-04-01T13:37:59;96300.72;;;9.39;100.00
70304;BME280;57712;48.752;11.348;2023-04-01T13:40:33;96303.66;;;9.44;100.00
70304;BME280;57712;48.752;11.348;2023-04-01T13:43:20;96301.59;;;9.36;100.00
70304;BME280;57712;48.752;11.348;2023-04-01T13:46:10;96298.63;;;9.43;100.00
70304;BME280;57712;48.752;11.348;2023-04-01T13:48:56;96302.91;;;9.44;100.00
70304;BME280;57712;48.752;11.348;2023-04-01T13:51:33;96297.66;;;9.37;100.00
70304;BME280;57712;48.752;11.348;2023-04-01T14:02:31;96302.91;;;9.44;100.00
70304;BME280;57712;48.752;11.348;2023-04-01T14:19:44;96280.28;;;10.00;100.00
70304;BME280;57712;48.752;11.348;2023-04-01T14:28:32;96302.31;;;10.18;100.00
70304;BME280;57712;48.752;11.348;2023-04-01T14:31:27;96289.22;;;10.13;100.00
70304;BME280;57712;48.752;11.348;2023-04-01T14:40:20;96295.06;;;10.02;100.00
70304;BME280;57712;48.752;11.348;2023-04-01T14:43:14;96304.75;;;10.16;100.00
70304;BME280;57712;48.752;11.348;2023-04-01T14:48:39;96294.31;;;10.02;100.00
70304;BME280;57712;48.752;11.348;2023-04-01T14:51:36;96309.50;;;10.03;100.00
70304;BME280;57712;48.752;11.348;2023-04-01T14:54:12;96297.84;;;9.90;100.00
70304;BME280;57712;48.752;11.348;2023-04-01T14:56:42;96298.63;;;10.12;100.00
70304;BME280;57712;48.752;11.348;2023-04-01T15:02:14;96302.69;;;10.07;100.00
70304;BME280;57712;48.752;11.348;2023-04-01T15:07:55;96298.88;;;10.05;100.00
70304;BME280;57712;48.752;11.348;2023-04-01T15:10:53;96300.91;;;9.92;100.00
70304;BME280;57712;48.752;11.348;2023-04-01T15:19:12;96311.59;;;9.99;100.00
70304;BME280;57712;48.752;11.348;2023-04-01T15:25:10;96310.38;;;10.00;100.00
70304;BME280;57712;48.752;11.348;2023-04-01T15:27:54;96322.66;;;9.95;100.00
70304;BME280;57712;48.752;11.348;2023-04-01T15:31:02;96317.50;;;9.97;100.00
70304;BME280;57712;48.752;11.348;2023-04-01T15:33:42;96321.75;;;9.98;100.00
70304;BME280;57712;48.752;11.348;2023-04-01T15:39:13;96325.66;;;10.10;100.00
70304;BME280;57712;48.752;11.348;2023-04-01T15:55:31;96344.50;;;9.73;100.00
70304;BME280;57712;48.752;11.348;2023-04-01T15:58:22;96343.53;;;9.67;100.00
70304;BME280;57712;48.752;11.348;2023-04-01T16:06:29;96342.31;;;9.68;100.00
70304;BME280;57712;48.752;11.348;2023-04-01T16:09:10;96351.28;;;9.69;100.00
70304;BME280;57712;48.752;11.348;2023-04-01T16:12:00;96353.47;;;9.74;100.00
70304;BME280;57712;48.752;11.348;2023-04-01T16:17:53;96355.13;;;9.71;100.00
70304;BME280;57712;48.752;11.348;2023-04-01T16:23:18;96354.44;;;9.80;100.00
70304;BME280;57712;48.752;11.348;2023-04-01T16:31:41;96358.81;;;9.77;100.00
70304;BME280;57712;48.752;11.348;2023-04-01T16:34:27;96358.72;;;9.68;100.00
70304;BME280;57712;48.752;11.348;2023-04-01T16:37:05;96364.94;;;9.69;100.00
70304;BME280;57712;48.752;11.348;2023-04-01T16:42:22;96364.53;;;9.58;100.00
70304;BME280;57712;48.752;11.348;2023-04-01T16:45:15;96365.19;;;9.62;100.00
70304;BME280;57712;48.752;11.348;2023-04-01T16:47:58;96365.53;;;9.51;100.00
70304;BME280;57712;48.752;11.348;2023-04-01T16:50:37;96380.41;;;9.50;100.00
70304;BME280;57712;48.752;11.348;2023-04-01T16:53:09;96385.47;;;9.39;100.00
70304;BME280;57712;48.752;11.348;2023-04-01T16:56:02;96381.09;;;9.29;100.00
70304;BME280;57712;48.752;11.348;2023-04-01T17:02:02;96400.09;;;9.07;100.00
70304;BME280;57712;48.752;11.348;2023-04-01T17:04:47;96397.56;;;9.12;100.00
70304;BME280;57712;48.752;11.348;2023-04-01T17:07:30;96403.59;;;9.07;100.00
70304;BME280;57712;48.752;11.348;2023-04-01T17:12:35;96401.38;;;9.02;100.00
70304;BME280;57712;48.752;11.348;2023-04-01T17:15:38;96404.56;;;9.01;100.00
70304;BME280;57712;48.752;11.348;2023-04-01T17:18:33;96406.97;;;9.11;100.00
70304;BME280;57712;48.752;11.348;2023-04-01T17:21:08;96402.78;;;8.94;100.00
70304;BME280;57712;48.752;11.348;2023-04-01T17:23:48;96413.81;;;8.90;100.00
70304;BME280;57712;48.752;11.348;2023-04-01T17:31:43;96415.69;;;8.93;100.00
70304;BME280;57712;48.752;11.348;2023-04-01T17:37:25;96417.63;;;8.80;100.00
70304;BME280;57712;48.752;11.348;2023-04-01T17:45:25;96437.56;;;8.64;100.00
70304;BME280;57712;48.752;11.348;2023-04-01T18:02:38;96434.53;;;8.75;100.00
70304;BME280;57712;48.752;11.348;2023-04-01T18:05:26;96419.03;;;8.85;100.00
70304;BME280;57712;48.752;11.348;2023-04-01T18:16:24;96440.88;;;8.85;100.00
70304;BME280;57712;48.752;11.348;2023-04-01T18:19:05;96451.81;;;8.85;100.00
70304;BME280;57712;48.752;11.348;2023-04-01T18:21:54;96453.88;;;8.81;100.00
70304;BME280;57712;48.752;11.348;2023-04-01T18:24:33;96457.72;;;8.83;100.00
70304;BME280;57712;48.752;11.348;2023-04-01T18:27:03;96462.94;;;8.78;100.00
70304;BME280;57712;48.752;11.348;2023-04-01T18:29:50;96462.06;;;8.81;100.00
70304;BME280;57712;48.752;11.348;2023-04-01T18:32:44;96465.13;;;8.83;100.00
70304;BME280;57712;48.752;11.348;2023-04-01T18:38:40;96476.38;;;8.85;100.00
70304;BME280;57712;48.752;11.348;2023-04-01T18:41:20;96468.31;;;8.81;100.00
70304;BME280;57712;48.752;11.348;2023-04-01T18:46:40;96481.00;;;8.88;100.00
70304;BME280;57712;48.752;11.348;2023-04-01T18:49:16;96483.06;;;8.84;100.00
70304;BME280;57712;48.752;11.348;2023-04-01T18:51:56;96492.44;;;8.83;100.00
70304;BME280;57712;48.752;11.348;2023-04-01T18:54:33;96493.22;;;8.83;100.00
70304;BME280;57712;48.752;11.348;2023-04-01T18:57:14;96493.66;;;8.82;100.00
70304;BME280;57712;48.752;11.348;2023-04-01T18:59:57;96497.56;;;8.81;100.00
70304;BME280;57712;48.752;11.348;2023-04-01T19:02:37;96510.91;;;8.79;100.00
70304;BME280;57712;48.752;11.348;2023-04-01T19:05:36;96510.31;;;8.71;100.00
70304;BME280;57712;48.752;11.348;2023-04-01T19:08:33;96515.53;;;8.65;100.00
70304;BME280;57712;48.752;11.348;2023-04-01T19:19:33;96530.81;;;8.63;100.00
70304;BME280;57712;48.752;11.348;2023-04-01T19:25:02;96529.59;;;8.64;100.00
70304;BME280;57712;48.752;11.348;2023-04-01T19:27:42;96530.19;;;8.72;100.00
70304;BME280;57712;48.752;11.348;2023-04-01T19:33:19;96532.75;;;8.62;100.00
70304;BME280;57712;48.752;11.348;2023-04-01T19:38:31;96542.63;;;8.73;100.00
70304;BME280;57712;48.752;11.348;2023-04-01T19:44:04;96539.31;;;8.81;100.00
70304;BME280;57712;48.752;11.348;2023-04-01T19:46:39;96539.97;;;8.85;100.00
70304;BME280;57712;48.752;11.348;2023-04-01T19:51:51;96542.47;;;8.80;100.00
70304;BME280;57712;48.752;11.348;2023-04-01T19:54:26;96537.50;;;8.75;100.00
70304;BME280;57712;48.752;11.348;2023-04-01T19:57:11;96548.78;;;8.77;100.00
70304;BME280;57712;48.752;11.348;2023-04-01T19:59:52;96539.56;;;8.71;100.00
70304;BME280;57712;48.752;11.348;2023-04-01T20:02:52;96546.56;;;8.72;100.00
70304;BME280;57712;48.752;11.348;2023-04-01T20:08:31;96547.78;;;8.71;100.00
70304;BME280;57712;48.752;11.348;2023-04-01T20:16:06;96551.84;;;8.79;100.00
70304;BME280;57712;48.752;11.348;2023-04-01T20:26:23;96563.09;;;8.81;100.00
70304;BME280;57712;48.752;11.348;2023-04-01T20:29:11;96564.47;;;8.73;100.00
70304;BME280;57712;48.752;11.348;2023-04-01T20:31:43;96563.66;;;8.76;100.00
70304;BME280;57712;48.752;11.348;2023-04-01T20:39:35;96577.63;;;8.78;100.00
70304;BME280;57712;48.752;11.348;2023-04-01T20:45:00;96576.25;;;8.86;100.00